»·PEaware :: CFLAG KALW-8W5

CFLAG :: KALW-8W5

FLIGHT INFORMATION

Flight Status: Arrived
Operator: Unknown
More flights by this operator :: More flights under this callsign
Pilot: Vincent M. (370)
Aircraft: CIRRUS SR-22
(SR22)
More flights by this aircraft type
Origin: KALW Walla Walla Regl
United States
Destination: 8W5 Apex Airpark
United States
More flights between these airports :: More routes between these airports
Route:
File this flight plan on PilotEdge
Remarks: Washington Alphabet Challenge
Altitude:
(Current/Filed)
8,500ft
Speed:
(Current/Filed)
180kts
Departed: 12-May-20 03:48 PM
Arrived: 12-May-20 05:07 PM
Distance/Time
Traveled:
205nm/1:19
Distance/Time
To Go:
Arrived

Flight Plot

Page will automatically refresh every two minutes.

Flight plan parsing failed; only flown route is shown


Map Options




Map Legend


Flown Route
Filed Route
Departure Airport
Arrival Airport
Navaid (VOR, NDB)
Fix

Horizontal Profiles

Position Reports

Time Latitude Longitude Heading Altitude Ground
Speed
12-May-20 15:42 46.087636 -118.285303 128 1208ft 0kts
12-May-20 15:44 46.088483 -118.285409 357 1208ft 12kts
12-May-20 15:45 46.092661 -118.281357 39 1208ft 18kts
12-May-20 15:46 46.096482 -118.277162 37 1208ft 11kts
12-May-20 15:47 46.099032 -118.276404 283 1208ft 22kts
12-May-20 15:48 46.081145 -118.292231 212 2063ft 104kts
12-May-20 15:49 46.081528 -118.328298 311 3602ft 116kts
12-May-20 15:50 46.105074 -118.362259 327 5111ft 124kts
12-May-20 15:51 46.135070 -118.388221 329 6616ft 128kts
12-May-20 15:52 46.161143 -118.423091 314 8117ft 130kts
12-May-20 15:53 46.190696 -118.466771 314 8503ft 173kts
12-May-20 15:54 46.220955 -118.524227 306 8500ft 183kts
12-May-20 15:55 46.251211 -118.583630 306 8500ft 184kts
12-May-20 15:56 46.281646 -118.643377 306 8499ft 184kts
12-May-20 15:57 46.311574 -118.702242 306 8499ft 184kts
12-May-20 15:58 46.341975 -118.761988 306 8499ft 184kts
12-May-20 15:59 46.369683 -118.824183 301 8499ft 184kts
12-May-20 15:59 46.392038 -118.877073 301 8499ft 184kts
12-May-20 16:01 46.425221 -118.949259 306 8499ft 184kts
12-May-20 16:02 46.455699 -119.008989 306 8499ft 184kts
12-May-20 16:02 46.481070 -119.058690 306 8499ft 184kts
12-May-20 16:03 46.511648 -119.118573 306 8499ft 184kts
12-May-20 16:05 46.547340 -119.188454 306 8499ft 184kts
12-May-20 16:05 46.572824 -119.238330 306 8499ft 184kts
12-May-20 16:06 46.603345 -119.298054 306 8499ft 184kts
12-May-20 16:07 46.634000 -119.358019 307 8499ft 184kts
12-May-20 16:08 46.664542 -119.417745 307 8499ft 184kts
12-May-20 16:09 46.695230 -119.477742 307 8499ft 184kts
12-May-20 16:10 46.725917 -119.537718 307 8499ft 184kts
12-May-20 16:11 46.756546 -119.597559 307 8499ft 184kts
12-May-20 16:12 46.787315 -119.657666 306 8499ft 184kts
12-May-20 16:13 46.817979 -119.717550 306 8499ft 184kts
12-May-20 16:14 46.848728 -119.777583 306 8499ft 184kts
12-May-20 16:15 46.879407 -119.837462 306 8499ft 184kts
12-May-20 16:16 46.910161 -119.897471 306 8499ft 184kts
12-May-20 16:17 46.940982 -119.957596 307 8499ft 184kts
12-May-20 16:18 46.971748 -120.017595 307 8499ft 184kts
12-May-20 16:19 46.998219 -120.081325 284 8499ft 184kts
12-May-20 16:20 47.019888 -120.148084 305 8500ft 184kts
12-May-20 16:21 47.048036 -120.211027 302 8499ft 184kts
12-May-20 16:22 47.074158 -120.275532 300 8499ft 184kts
12-May-20 16:23 47.099819 -120.340805 300 8499ft 184kts
12-May-20 16:24 47.125896 -120.405681 302 8499ft 184kts
12-May-20 16:25 47.153488 -120.469436 305 8500ft 184kts
12-May-20 16:26 47.182918 -120.531188 305 8499ft 184kts
12-May-20 16:27 47.212347 -120.592901 305 8499ft 184kts
12-May-20 16:28 47.241696 -120.654439 304 8499ft 184kts
12-May-20 16:29 47.270015 -120.717767 302 8499ft 184kts
12-May-20 16:30 47.297357 -120.781973 302 8499ft 184kts
12-May-20 16:31 47.324617 -120.845984 302 8499ft 184kts
12-May-20 16:32 47.351906 -120.910049 302 8499ft 184kts
12-May-20 16:33 47.379288 -120.974324 302 8499ft 184kts
12-May-20 16:34 47.406647 -121.038531 302 8499ft 184kts
12-May-20 16:35 47.434117 -121.102626 304 8500ft 184kts
12-May-20 16:36 47.462993 -121.165423 304 8499ft 184kts
12-May-20 16:37 47.491874 -121.228203 304 8499ft 184kts
12-May-20 16:38 47.520813 -121.291099 304 8499ft 184kts
12-May-20 16:39 47.549519 -121.353875 302 8499ft 184kts
12-May-20 16:40 47.576258 -121.419010 301 8499ft 184kts
12-May-20 16:41 47.602974 -121.484126 301 8499ft 184kts
12-May-20 16:42 47.629607 -121.549028 301 8499ft 184kts
12-May-20 16:43 47.656997 -121.613687 303 8500ft 184kts
12-May-20 16:44 47.685211 -121.677320 303 8499ft 184kts
12-May-20 16:45 47.713588 -121.741188 303 7593ft 185kts
12-May-20 16:46 47.741711 -121.804594 303 6591ft 183kts
12-May-20 16:47 47.769701 -121.867676 303 5587ft 181kts
12-May-20 16:48 47.797278 -121.929806 303 4590ft 179kts
12-May-20 16:49 47.824428 -121.991079 303 4500ft 177kts
12-May-20 16:50 47.837434 -122.058936 266 4500ft 177kts
12-May-20 16:51 47.836880 -122.132396 272 4499ft 177kts
12-May-20 16:52 47.839049 -122.205914 272 4499ft 177kts
12-May-20 16:53 47.840473 -122.279344 270 4499ft 177kts
12-May-20 16:54 47.840953 -122.352976 270 4499ft 177kts
12-May-20 16:55 47.841646 -122.426582 273 4498ft 177kts
12-May-20 16:56 47.843911 -122.500725 273 4244ft 183kts
12-May-20 16:57 47.846181 -122.574457 273 3239ft 175kts
12-May-20 16:58 47.848385 -122.646662 273 2235ft 173kts
12-May-20 16:59 47.819040 -122.687815 192 1500ft 157kts
12-May-20 17:00 47.783056 -122.699845 195 1408ft 123kts
12-May-20 17:01 47.750899 -122.703766 177 868ft 107kts
12-May-20 17:02 47.726476 -122.704636 187 608ft 87kts
12-May-20 17:03 47.702701 -122.717791 197 629ft 92kts
12-May-20 17:04 47.677159 -122.727289 195 607ft 92kts
12-May-20 17:05 47.654559 -122.733328 185 499ft 57kts
12-May-20 17:06 47.652965 -122.733590 244 492ft 0kts
12-May-20 17:07 47.653027 -122.733693 239 494ft 0kts
12-May-20 17:08 47.653027 -122.733693 239 494ft 0kts
12-May-20 17:09 47.653027 -122.733693 239 494ft 0kts
12-May-20 17:10 47.653027 -122.733693 239 494ft 0kts
12-May-20 17:11 47.653027 -122.733693 239 494ft 0kts
12-May-20 17:12 47.653027 -122.733693 239 494ft 0kts
12-May-20 17:13 47.653027 -122.733693 239 494ft 0kts
12-May-20 17:14 47.653027 -122.733693 239 494ft 0kts

Navigation Log

Ident Type
Flight plan parsing failed, navigation log unavailable